createdAt,value
2022-11-28T00:00:39.904Z,4.94
2022-11-28T00:03:11.937Z,4.98
2022-11-28T00:05:46.923Z,4.93
2022-11-28T00:08:14.660Z,4.82
2022-11-28T00:10:45.215Z,4.94
2022-11-28T00:13:15.728Z,4.89
2022-11-28T00:15:46.359Z,4.80
2022-11-28T00:18:16.859Z,4.63
2022-11-28T00:20:48.448Z,4.75
2022-11-28T00:23:20.181Z,4.75
2022-11-28T00:26:02.113Z,4.64
2022-11-28T00:28:32.816Z,4.35
2022-11-28T00:31:03.760Z,4.44
2022-11-28T00:33:35.121Z,4.50
2022-11-28T00:36:07.002Z,4.46
2022-11-28T00:38:37.703Z,4.41
2022-11-28T00:41:17.070Z,4.49
2022-11-28T00:43:48.888Z,4.61
2022-11-28T00:46:21.484Z,4.60
2022-11-28T00:48:52.382Z,4.57
2022-11-28T00:51:30.991Z,4.68
2022-11-28T00:54:03.508Z,4.48
2022-11-28T00:56:36.934Z,4.54
2022-11-28T00:59:08.252Z,4.67
2022-11-28T01:01:41.958Z,4.42
2022-11-28T01:04:15.211Z,4.48
2022-11-28T01:06:48.440Z,4.51
2022-11-28T01:09:22.254Z,4.50
2022-11-28T01:11:55.110Z,4.53
2022-11-28T01:14:27.238Z,4.54
2022-11-28T01:16:58.837Z,4.54
2022-11-28T01:19:30.600Z,4.44
2022-11-28T01:22:01.063Z,4.43
2022-11-28T01:24:31.536Z,4.44
2022-11-28T01:27:01.997Z,4.38
2022-11-28T01:29:32.469Z,4.38
2022-11-28T01:32:02.996Z,4.35
2022-11-28T01:34:33.557Z,4.34
2022-11-28T01:37:04.025Z,4.41
2022-11-28T01:39:34.548Z,4.35
2022-11-28T01:42:05.312Z,4.39
2022-11-28T01:44:41.830Z,4.33
2022-11-28T01:47:13.753Z,4.08
2022-11-28T01:49:45.800Z,4.12
2022-11-28T01:52:20.728Z,4.22
2022-11-28T01:54:54.559Z,4.07
2022-11-28T01:57:26.956Z,4.00
2022-11-28T02:00:00.451Z,3.74
2022-11-28T02:02:39.818Z,3.57
2022-11-28T02:05:10.620Z,3.65
2022-11-28T02:07:44.303Z,3.60
2022-11-28T02:10:17.797Z,3.73
2022-11-28T02:13:08.200Z,3.70
2022-11-28T02:15:44.390Z,3.83
2022-11-28T02:18:25.106Z,3.80
2022-11-28T02:21:02.740Z,3.74
2022-11-28T02:23:51.709Z,3.73
2022-11-28T02:26:36.881Z,3.69
2022-11-28T02:29:16.364Z,3.56
2022-11-28T02:32:01.701Z,3.55
2022-11-28T02:34:52.059Z,3.71
2022-11-28T02:37:25.762Z,3.33
2022-11-28T02:40:17.218Z,3.15
2022-11-28T02:43:05.908Z,3.23
2022-11-28T02:46:00.628Z,3.54
2022-11-28T02:48:42.920Z,3.14
2022-11-28T02:51:31.366Z,3.34
2022-11-28T02:54:05.151Z,3.48
2022-11-28T02:56:37.213Z,3.25
2022-11-28T02:59:11.838Z,3.28
2022-11-28T03:01:42.798Z,3.49
2022-11-28T03:04:25.353Z,2.99
2022-11-28T03:07:10.930Z,2.94
2022-11-28T03:10:03.767Z,2.94
2022-11-28T03:12:39.975Z,3.40
2022-11-28T03:15:13.391Z,3.44
2022-11-28T03:18:09.655Z,3.02
2022-11-28T03:20:50.587Z,3.26
2022-11-28T03:23:29.046Z,3.76
2022-11-28T03:26:08.751Z,3.63
2022-11-28T03:28:52.291Z,3.53
2022-11-28T03:31:34.436Z,3.44
2022-11-28T03:34:08.214Z,3.45
2022-11-28T03:36:44.269Z,3.46
2022-11-28T03:39:17.752Z,3.51
2022-11-28T03:41:52.496Z,3.35
2022-11-28T03:44:31.591Z,3.62
2022-11-28T03:47:04.220Z,3.56
2022-11-28T03:49:40.238Z,3.48
2022-11-28T03:52:17.467Z,3.31
2022-11-28T03:54:57.085Z,3.15
2022-11-28T03:57:36.379Z,3.11
2022-11-28T04:00:10.770Z,3.19
2022-11-28T04:02:59.153Z,2.91
2022-11-28T04:05:35.231Z,3.21
2022-11-28T04:08:17.658Z,3.30
2022-11-28T04:11:06.252Z,3.35
2022-11-28T04:13:43.518Z,3.63
2022-11-28T04:16:38.636Z,3.55
2022-11-28T04:19:33.314Z,3.66
2022-11-28T04:22:12.369Z,3.84
2022-11-28T04:24:45.835Z,3.77
2022-11-28T04:27:19.610Z,3.68
2022-11-28T04:29:53.263Z,3.54
2022-11-28T04:32:26.073Z,3.42
2022-11-28T04:35:02.335Z,3.47
2022-11-28T04:37:35.651Z,3.51
2022-11-28T04:40:09.173Z,3.75
2022-11-28T04:42:42.581Z,3.56
2022-11-28T04:45:28.227Z,3.26
2022-11-28T04:47:58.630Z,3.75
2022-11-28T04:50:31.934Z,3.98
2022-11-28T04:53:08.405Z,3.58
2022-11-28T04:55:44.788Z,3.44
2022-11-28T04:58:20.725Z,3.23
2022-11-28T05:00:54.580Z,3.11
2022-11-28T05:03:28.192Z,3.61
2022-11-28T05:05:58.710Z,3.75
2022-11-28T05:08:29.410Z,3.78
2022-11-28T05:10:59.884Z,3.81
2022-11-28T05:13:30.325Z,3.81
2022-11-28T05:16:03.616Z,3.93
2022-11-28T05:18:35.223Z,3.98
2022-11-28T05:21:07.557Z,4.13
2022-11-28T05:23:40.253Z,4.05
2022-11-28T05:26:15.897Z,4.14
2022-11-28T05:28:49.885Z,4.22
2022-11-28T05:31:23.229Z,4.18
2022-11-28T05:33:56.631Z,4.00
2022-11-28T05:36:33.807Z,4.14
2022-11-28T05:39:09.516Z,4.10
2022-11-28T05:41:42.551Z,4.03
2022-11-28T05:44:16.249Z,3.93
2022-11-28T05:46:51.835Z,3.65
2022-11-28T05:49:27.138Z,3.77
2022-11-28T05:51:59.206Z,4.06
2022-11-28T05:54:32.960Z,4.10
2022-11-28T05:57:08.049Z,3.94
2022-11-28T05:59:39.547Z,3.94
2022-11-28T06:02:13.168Z,4.08
2022-11-28T06:04:44.803Z,4.19
2022-11-28T06:07:20.284Z,4.18
2022-11-28T06:09:51.457Z,4.23
2022-11-28T06:12:25.226Z,4.22
2022-11-28T06:14:57.329Z,4.24
2022-11-28T06:17:31.180Z,4.28
2022-11-28T06:20:03.962Z,4.28
2022-11-28T06:22:46.943Z,4.23
2022-11-28T06:25:19.319Z,4.25
2022-11-28T06:27:52.869Z,4.22
2022-11-28T06:30:31.069Z,4.25
2022-11-28T06:33:04.013Z,4.26
2022-11-28T06:35:37.412Z,4.36
2022-11-28T06:38:14.391Z,4.38
2022-11-28T06:40:45.406Z,4.35
2022-11-28T06:43:19.361Z,4.31
2022-11-28T06:45:54.565Z,4.37
2022-11-28T06:48:27.135Z,4.42
2022-11-28T06:51:08.582Z,4.48
2022-11-28T06:53:40.652Z,4.49
2022-11-28T06:56:17.801Z,4.57
2022-11-28T06:58:52.680Z,4.57
2022-11-28T07:01:26.508Z,4.59
2022-11-28T07:03:59.747Z,4.66
2022-11-28T07:06:41.020Z,4.75
2022-11-28T07:09:14.190Z,4.75
2022-11-28T07:11:49.658Z,4.77
2022-11-28T07:14:22.245Z,4.77
2022-11-28T07:16:54.995Z,4.81
2022-11-28T07:19:33.250Z,4.82
2022-11-28T07:22:05.156Z,4.80
2022-11-28T07:24:36.542Z,4.84
2022-11-28T07:27:08.324Z,4.82
2022-11-28T07:29:40.504Z,4.80
2022-11-28T07:32:12.701Z,4.85
2022-11-28T07:34:49.882Z,4.75
2022-11-28T07:37:19.986Z,4.87
2022-11-28T07:39:55.609Z,4.66
2022-11-28T07:42:26.314Z,4.82
2022-11-28T07:44:58.141Z,4.65
2022-11-28T07:47:30.725Z,4.89
2022-11-28T07:50:01.287Z,4.77
2022-11-28T07:52:31.719Z,4.81
2022-11-28T07:55:02.252Z,4.87
2022-11-28T07:57:32.842Z,5.00
2022-11-28T08:00:03.500Z,5.06
2022-11-28T08:02:34.885Z,4.96
2022-11-28T08:05:05.444Z,5.13
2022-11-28T08:07:36.056Z,4.99
2022-11-28T08:10:07.959Z,5.13
2022-11-28T08:12:39.423Z,5.14
2022-11-28T08:15:11.412Z,4.84
2022-11-28T08:17:41.938Z,5.14
2022-11-28T08:20:12.849Z,4.87
2022-11-28T08:22:43.380Z,5.18
2022-11-28T08:25:13.842Z,5.00
2022-11-28T08:27:44.825Z,5.10
2022-11-28T08:30:15.914Z,5.18
2022-11-28T08:32:47.547Z,5.06
2022-11-28T08:35:19.250Z,5.18
2022-11-28T08:37:51.182Z,5.11
2022-11-28T08:40:21.646Z,4.94
2022-11-28T08:42:52.243Z,5.12
2022-11-28T08:45:22.735Z,5.29
2022-11-28T08:47:53.165Z,5.28
2022-11-28T08:50:23.632Z,5.43
2022-11-28T08:52:54.143Z,5.11
2022-11-28T08:55:32.338Z,5.64
2022-11-28T08:57:58.018Z,6.50
2022-11-28T09:00:29.614Z,7.65
2022-11-28T09:03:00.365Z,8.83
2022-11-28T09:05:32.167Z,9.98
2022-11-28T09:08:02.673Z,10.70
2022-11-28T09:10:34.574Z,10.80
2022-11-28T09:13:05.814Z,11.90
2022-11-28T09:15:36.498Z,11.88
2022-11-28T09:18:07.141Z,13.12
2022-11-28T09:20:37.718Z,13.59
2022-11-28T09:23:08.998Z,13.90
2022-11-28T09:25:40.601Z,14.10
2022-11-28T09:28:11.117Z,14.23
2022-11-28T09:30:41.647Z,13.47
2022-11-28T09:33:13.574Z,13.20
2022-11-28T09:35:44.080Z,12.73
2022-11-28T09:38:14.488Z,12.45
2022-11-28T09:40:45.880Z,12.39
2022-11-28T09:43:22.106Z,11.41
2022-11-28T09:45:56.540Z,11.58
2022-11-28T09:48:45.098Z,10.57
2022-11-28T09:51:34.947Z,10.55
2022-11-28T09:54:23.223Z,9.53
2022-11-28T09:56:53.668Z,9.57
2022-11-28T09:59:29.882Z,9.20
2022-11-28T10:02:15.727Z,9.30
2022-11-28T10:05:10.201Z,9.00
2022-11-28T10:07:43.754Z,8.74
2022-11-28T10:10:26.175Z,8.14
2022-11-28T10:13:04.630Z,7.68
2022-11-28T10:15:44.177Z,7.51
2022-11-28T10:18:30.569Z,7.68
2022-11-28T10:21:07.840Z,7.21
2022-11-28T10:23:46.570Z,7.01
2022-11-28T10:26:40.240Z,7.05
2022-11-28T10:29:25.477Z,7.41
2022-11-28T10:32:00.124Z,7.07
2022-11-28T10:34:33.780Z,7.12
2022-11-28T10:37:22.240Z,7.26
2022-11-28T10:39:53.579Z,6.86
2022-11-28T10:42:30.981Z,6.89
2022-11-28T10:45:16.767Z,7.15
2022-11-28T10:47:55.958Z,7.09
2022-11-28T10:50:33.880Z,7.08
2022-11-28T10:53:16.582Z,7.18
2022-11-28T10:55:55.812Z,7.18
2022-11-28T10:58:29.236Z,7.43
2022-11-28T11:01:01.007Z,7.45
2022-11-28T11:03:35.998Z,7.43
2022-11-28T11:06:06.579Z,7.30
2022-11-28T11:08:42.018Z,7.34
2022-11-28T11:11:18.724Z,7.29
2022-11-28T11:14:04.065Z,7.56
2022-11-28T11:16:59.839Z,7.31
2022-11-28T11:19:36.209Z,7.68
2022-11-28T11:22:15.137Z,7.63
2022-11-28T11:24:45.938Z,7.67
2022-11-28T11:27:22.200Z,7.66
2022-11-28T11:29:55.718Z,7.48
2022-11-28T11:32:32.355Z,7.41
2022-11-28T11:35:03.339Z,7.61
2022-11-28T11:37:36.864Z,7.37
2022-11-28T11:40:22.706Z,7.44
2022-11-28T11:43:00.000Z,7.29
2022-11-28T11:45:34.483Z,7.66
2022-11-28T11:48:06.132Z,7.16
2022-11-28T11:50:38.282Z,7.40
2022-11-28T11:53:14.294Z,7.43
2022-11-28T11:55:58.645Z,7.32
2022-11-28T11:58:44.992Z,7.49
2022-11-28T12:01:18.552Z,7.72
2022-11-28T12:03:58.341Z,7.68
2022-11-28T12:06:37.070Z,8.09
2022-11-28T12:09:19.371Z,7.69
2022-11-28T12:11:52.840Z,7.48
2022-11-28T12:14:34.880Z,7.61
2022-11-28T12:17:40.423Z,7.40
2022-11-28T12:20:07.695Z,7.54
2022-11-28T12:22:57.866Z,7.47
2022-11-28T12:25:40.381Z,7.41
2022-11-28T12:28:26.856Z,7.25
2022-11-28T12:31:06.375Z,7.46
2022-11-28T12:34:16.661Z,7.44
2022-11-28T12:37:03.376Z,6.82
2022-11-28T12:39:42.341Z,7.23
2022-11-28T12:42:15.968Z,7.10
2022-11-28T12:45:05.991Z,7.02
2022-11-28T12:47:45.047Z,7.16
2022-11-28T12:50:34.131Z,7.21
2022-11-28T12:53:29.549Z,7.29
2022-11-28T12:56:13.058Z,7.13
2022-11-28T12:58:49.161Z,7.19
2022-11-28T13:01:37.444Z,7.09
2022-11-28T13:04:30.152Z,7.05
2022-11-28T13:07:06.341Z,7.08
2022-11-28T13:09:39.807Z,6.91
2022-11-28T13:12:23.033Z,6.78
2022-11-28T13:14:59.195Z,6.93
2022-11-28T13:17:53.481Z,6.96
2022-11-28T13:20:29.592Z,7.09
2022-11-28T13:23:22.120Z,6.96
2022-11-28T13:26:16.307Z,7.04
2022-11-28T13:28:55.621Z,7.15
2022-11-28T13:31:41.192Z,7.20
2022-11-28T13:34:20.377Z,7.12
2022-11-28T13:39:50.443Z,7.22
2022-11-28T13:42:59.699Z,7.26
2022-11-28T13:45:34.299Z,7.24
2022-11-28T13:51:31.122Z,7.09
2022-11-28T13:54:20.539Z,7.15
2022-11-28T13:57:10.431Z,6.87
2022-11-28T13:59:43.617Z,7.04
2022-11-28T14:02:22.946Z,6.61
2022-11-28T14:04:53.748Z,6.78
2022-11-28T14:07:33.234Z,6.54
2022-11-28T14:10:31.204Z,6.90
2022-11-28T14:13:04.590Z,6.70
2022-11-28T14:15:43.875Z,6.66
2022-11-28T14:18:55.181Z,6.56
2022-11-28T14:21:11.617Z,6.63
2022-11-28T14:23:50.675Z,6.55
2022-11-28T14:26:33.879Z,6.40
2022-11-28T14:29:07.810Z,6.41
2022-11-28T14:31:50.929Z,6.66
2022-11-28T14:34:14.425Z,6.86
2022-11-28T14:36:45.956Z,6.51
2022-11-28T14:39:20.495Z,6.64
2022-11-28T14:42:10.102Z,6.37
2022-11-28T14:45:06.737Z,6.63
2022-11-28T14:47:36.771Z,6.53
2022-11-28T14:50:10.661Z,6.47
2022-11-28T14:52:48.295Z,6.19
2022-11-28T14:55:26.945Z,6.42
2022-11-28T14:58:02.853Z,6.50
2022-11-28T15:00:43.561Z,6.41
2022-11-28T15:03:17.004Z,6.31
2022-11-28T15:05:55.756Z,6.43
2022-11-28T15:08:52.526Z,6.31
2022-11-28T15:11:38.293Z,6.57
2022-11-28T15:14:21.708Z,6.54
2022-11-28T15:16:54.937Z,7.28
2022-11-28T15:19:31.324Z,6.51
2022-11-28T15:22:03.170Z,6.13
2022-11-28T15:24:39.190Z,6.31
2022-11-28T15:27:12.626Z,6.13
2022-11-28T15:29:43.094Z,6.70
2022-11-28T15:32:16.761Z,6.33
2022-11-28T15:34:50.167Z,6.11
2022-11-28T15:37:23.105Z,5.83
2022-11-28T15:39:53.729Z,6.25
2022-11-28T15:42:30.234Z,6.27
2022-11-28T15:45:06.325Z,6.16
2022-11-28T15:47:39.222Z,6.07
2022-11-28T15:50:17.245Z,6.04
2022-11-28T15:52:57.179Z,6.35
2022-11-28T15:55:30.891Z,5.96
2022-11-28T15:58:29.674Z,5.95
2022-11-28T16:01:05.896Z,5.97
2022-11-28T16:03:45.169Z,6.18
2022-11-28T16:06:16.190Z,6.02
2022-11-28T16:08:52.670Z,5.76
2022-11-28T16:11:26.160Z,6.22
2022-11-28T16:13:59.285Z,5.71
2022-11-28T16:16:33.011Z,6.10
2022-11-28T16:19:08.541Z,6.08
2022-11-28T16:21:53.838Z,6.23
2022-11-28T16:24:27.609Z,5.72
2022-11-28T16:27:00.632Z,5.72
2022-11-28T16:29:35.033Z,5.99
2022-11-28T16:32:11.635Z,6.31
2022-11-28T16:34:53.146Z,5.87
2022-11-28T16:37:27.106Z,5.93
2022-11-28T16:40:23.639Z,5.95
2022-11-28T16:42:56.513Z,5.95
2022-11-28T16:45:32.837Z,6.09
2022-11-28T16:48:13.668Z,6.50
2022-11-28T16:53:49.532Z,5.89
2022-11-28T16:56:28.236Z,6.04
2022-11-28T16:59:16.137Z,6.03
2022-11-28T17:01:49.426Z,6.09
2022-11-28T17:04:28.714Z,6.19
2022-11-28T17:07:05.648Z,5.96
2022-11-28T17:09:37.664Z,5.94
2022-11-28T17:12:11.117Z,6.17
2022-11-28T17:14:41.597Z,6.08
2022-11-28T17:17:17.653Z,5.84
2022-11-28T17:19:48.361Z,6.14
2022-11-28T17:22:22.011Z,6.00
2022-11-28T17:24:55.204Z,6.07
2022-11-28T17:27:25.690Z,5.93
2022-11-28T17:29:56.274Z,5.74
2022-11-28T17:32:28.074Z,5.89
2022-11-28T17:35:01.492Z,5.71
2022-11-28T17:37:32.080Z,6.10
2022-11-28T17:40:20.815Z,5.96
2022-11-28T17:42:52.774Z,5.87
2022-11-28T17:45:24.595Z,5.79
2022-11-28T17:47:55.191Z,5.77
2022-11-28T17:50:25.690Z,5.72
2022-11-28T17:52:56.223Z,5.51
2022-11-28T17:55:26.743Z,5.64
2022-11-28T17:57:57.168Z,5.93
2022-11-28T18:00:29.661Z,5.86
2022-11-28T18:03:00.164Z,5.86
2022-11-28T18:05:30.640Z,5.63
2022-11-28T18:08:01.220Z,6.21
2022-11-28T18:10:31.736Z,5.66
2022-11-28T18:13:02.298Z,5.49
2022-11-28T18:15:35.300Z,6.10
2022-11-28T18:18:06.022Z,6.38
2022-11-28T18:20:38.203Z,6.00
2022-11-28T18:23:12.667Z,5.95
2022-11-28T18:25:44.637Z,5.71
2022-11-28T18:28:19.005Z,6.00
2022-11-28T18:30:49.231Z,5.87
2022-11-28T18:33:19.763Z,5.71
2022-11-28T18:35:50.223Z,5.77
2022-11-28T18:38:20.723Z,6.04
2022-11-28T18:40:51.686Z,6.13
2022-11-28T18:43:22.181Z,6.06
2022-11-28T18:45:52.650Z,6.02
2022-11-28T18:48:23.141Z,5.63
2022-11-28T18:50:53.527Z,5.91
2022-11-28T18:53:24.028Z,6.11
2022-11-28T18:56:05.078Z,5.84
2022-11-28T18:58:38.282Z,5.86
2022-11-28T19:01:14.171Z,6.10
2022-11-28T19:03:47.113Z,5.88
2022-11-28T19:06:19.219Z,5.67
2022-11-28T19:08:51.799Z,6.05
2022-11-28T19:11:22.761Z,6.13
2022-11-28T19:13:53.988Z,6.01
2022-11-28T19:16:27.120Z,5.67
2022-11-28T19:18:58.652Z,5.56
2022-11-28T19:21:32.925Z,5.91
2022-11-28T19:24:03.423Z,5.64
2022-11-28T19:26:34.208Z,5.77
2022-11-28T19:29:05.049Z,5.91
2022-11-28T19:31:38.280Z,5.57
2022-11-28T19:34:17.947Z,5.81
2022-11-28T19:36:51.257Z,5.65
2022-11-28T19:39:24.031Z,5.90
2022-11-28T19:41:57.011Z,5.62
2022-11-28T19:44:29.386Z,5.57
2022-11-28T19:47:01.113Z,5.67
2022-11-28T19:49:31.573Z,5.56
2022-11-28T19:52:02.058Z,5.92
2022-11-28T19:54:32.622Z,5.72
2022-11-28T19:57:03.172Z,5.61
2022-11-28T19:59:33.671Z,5.49
2022-11-28T20:02:06.256Z,5.95
2022-11-28T20:04:37.367Z,5.86
2022-11-28T20:07:07.872Z,5.88
2022-11-28T20:09:38.465Z,5.70
2022-11-28T20:12:09.073Z,5.37
2022-11-28T20:14:39.732Z,5.61
2022-11-28T20:17:10.243Z,5.90
2022-11-28T20:19:41.057Z,5.87
2022-11-28T20:22:12.052Z,5.36
2022-11-28T20:24:43.790Z,5.48
2022-11-28T20:27:14.297Z,5.52
2022-11-28T20:29:45.177Z,5.52
2022-11-28T20:32:15.915Z,5.90
2022-11-28T20:34:46.909Z,5.72
2022-11-28T20:37:17.428Z,5.57
2022-11-28T20:39:48.512Z,5.90
2022-11-28T20:42:19.411Z,6.10
2022-11-28T20:44:49.934Z,5.75
2022-11-28T20:47:20.518Z,5.42
2022-11-28T20:49:50.968Z,5.38
2022-11-28T20:52:21.555Z,5.66
2022-11-28T20:54:52.267Z,5.25
2022-11-28T20:57:22.908Z,5.74
2022-11-28T20:59:55.039Z,5.28
2022-11-28T21:02:25.764Z,5.29
2022-11-28T21:04:56.523Z,5.29
2022-11-28T21:07:27.132Z,5.47
2022-11-28T21:09:59.633Z,5.55
2022-11-28T21:12:31.403Z,5.45
2022-11-28T21:15:02.171Z,5.50
2022-11-28T21:17:33.494Z,5.56
2022-11-28T21:20:04.499Z,6.09
2022-11-28T21:22:35.023Z,5.97
2022-11-28T21:25:05.761Z,5.46
2022-11-28T21:27:36.287Z,5.47
2022-11-28T21:30:09.015Z,5.51
2022-11-28T21:32:39.554Z,5.54
2022-11-28T21:35:10.447Z,5.70
2022-11-28T21:37:40.970Z,5.48
2022-11-28T21:40:12.534Z,5.96
2022-11-28T21:42:43.038Z,5.64
2022-11-28T21:45:13.565Z,5.26
2022-11-28T21:47:44.274Z,5.45
2022-11-28T21:50:15.494Z,5.56
2022-11-28T21:52:46.735Z,5.35
2022-11-28T21:55:17.366Z,5.52
2022-11-28T21:57:47.895Z,5.40
2022-11-28T22:00:45.609Z,5.48
2022-11-28T22:02:51.968Z,5.64
2022-11-28T22:05:24.583Z,5.66
2022-11-28T22:07:55.221Z,5.36
2022-11-28T22:10:25.913Z,5.39
2022-11-28T22:12:56.543Z,5.37
2022-11-28T22:15:27.249Z,5.48
2022-11-28T22:17:58.088Z,5.46
2022-11-28T22:20:28.990Z,5.33
2022-11-28T22:22:59.678Z,5.43
2022-11-28T22:25:30.305Z,5.40
2022-11-28T22:28:02.808Z,5.35
2022-11-28T22:30:33.807Z,5.78
2022-11-28T22:33:04.767Z,5.45
2022-11-28T22:35:36.897Z,5.58
2022-11-28T22:38:11.502Z,5.57
2022-11-28T22:40:48.939Z,5.56
2022-11-28T22:43:21.411Z,5.67
2022-11-28T22:46:05.053Z,5.55
2022-11-28T22:48:38.999Z,5.25
2022-11-28T22:51:20.432Z,5.46
2022-11-28T22:53:56.647Z,5.36
2022-11-28T22:56:35.775Z,5.66
2022-11-28T22:59:10.399Z,5.61
2022-11-28T23:01:45.261Z,5.61
2022-11-28T23:04:20.518Z,5.78
2022-11-28T23:06:52.495Z,5.86
2022-11-28T23:09:28.621Z,5.75
2022-11-28T23:12:05.167Z,5.46
2022-11-28T23:14:41.785Z,5.93
2022-11-28T23:17:14.633Z,5.45
2022-11-28T23:19:47.452Z,5.37
2022-11-28T23:22:24.372Z,5.38
2022-11-28T23:24:56.379Z,5.69
2022-11-28T23:27:33.206Z,5.22
2022-11-28T23:30:17.017Z,6.04
2022-11-28T23:32:48.260Z,5.63
2022-11-28T23:35:20.001Z,5.37
2022-11-28T23:37:50.634Z,5.07
2022-11-28T23:40:23.399Z,5.27
2022-11-28T23:42:56.570Z,5.55
2022-11-28T23:45:27.369Z,5.16
2022-11-28T23:47:59.019Z,5.64
2022-11-28T23:50:29.663Z,5.44
2022-11-28T23:53:00.192Z,5.20
2022-11-28T23:55:30.870Z,5.44
2022-11-28T23:58:01.411Z,5.31
